sensor_id;sensor_type;location;lat;lon;timestamp;temperature;humidity
70214;DHT22;60138;55.808;37.078;2022-07-25T00:01:23;19.79;59.37
70214;DHT22;60138;55.808;37.078;2022-07-25T00:03:48;19.72;59.39
70214;DHT22;60138;55.808;37.078;2022-07-25T00:06:14;19.66;59.71
70214;DHT22;60138;55.808;37.078;2022-07-25T00:08:40;19.63;59.74
70214;DHT22;60138;55.808;37.078;2022-07-25T00:11:06;19.62;59.83
70214;DHT22;60138;55.808;37.078;2022-07-25T00:13:32;19.66;59.90
70214;DHT22;60138;55.808;37.078;2022-07-25T00:15:58;19.63;59.83
70214;DHT22;60138;55.808;37.078;2022-07-25T00:18:24;19.58;59.87
70214;DHT22;60138;55.808;37.078;2022-07-25T00:20:49;19.56;60.02
70214;DHT22;60138;55.808;37.078;2022-07-25T00:23:15;19.50;60.22
70214;DHT22;60138;55.808;37.078;2022-07-25T00:25:41;19.45;60.54
70214;DHT22;60138;55.808;37.078;2022-07-25T00:28:07;19.41;60.51
70214;DHT22;60138;55.808;37.078;2022-07-25T00:30:33;19.36;60.65
70214;DHT22;60138;55.808;37.078;2022-07-25T00:32:59;19.30;60.65
70214;DHT22;60138;55.808;37.078;2022-07-25T00:35:24;19.24;61.02
70214;DHT22;60138;55.808;37.078;2022-07-25T00:37:50;19.21;60.82
70214;DHT22;60138;55.808;37.078;2022-07-25T00:40:16;19.14;60.92
70214;DHT22;60138;55.808;37.078;2022-07-25T00:42:42;19.11;60.82
70214;DHT22;60138;55.808;37.078;2022-07-25T00:45:08;19.09;61.14
70214;DHT22;60138;55.808;37.078;2022-07-25T00:47:34;19.07;61.25
70214;DHT22;60138;55.808;37.078;2022-07-25T00:49:59;19.06;61.50
70214;DHT22;60138;55.808;37.078;2022-07-25T00:52:25;19.00;61.24
70214;DHT22;60138;55.808;37.078;2022-07-25T00:54:51;18.92;61.50
70214;DHT22;60138;55.808;37.078;2022-07-25T00:57:17;18.83;61.79
70214;DHT22;60138;55.808;37.078;2022-07-25T00:59:42;18.78;61.96
70214;DHT22;60138;55.808;37.078;2022-07-25T01:02:08;18.77;62.05
70214;DHT22;60138;55.808;37.078;2022-07-25T01:04:34;18.73;62.08
70214;DHT22;60138;55.808;37.078;2022-07-25T01:07:00;18.71;62.25
70214;DHT22;60138;55.808;37.078;2022-07-25T01:09:26;18.68;62.86
70214;DHT22;60138;55.808;37.078;2022-07-25T01:11:52;18.66;62.43
70214;DHT22;60138;55.808;37.078;2022-07-25T01:14:18;18.67;62.36
70214;DHT22;60138;55.808;37.078;2022-07-25T01:16:43;18.65;62.53
70214;DHT22;60138;55.808;37.078;2022-07-25T01:19:09;18.63;62.66
70214;DHT22;60138;55.808;37.078;2022-07-25T01:21:39;18.63;62.62
70214;DHT22;60138;55.808;37.078;2022-07-25T01:24:05;18.64;62.72
70214;DHT22;60138;55.808;37.078;2022-07-25T01:26:31;18.64;62.84
70214;DHT22;60138;55.808;37.078;2022-07-25T01:28:57;18.63;63.03
70214;DHT22;60138;55.808;37.078;2022-07-25T01:31:23;18.62;62.98
70214;DHT22;60138;55.808;37.078;2022-07-25T01:33:49;18.62;63.11
70214;DHT22;60138;55.808;37.078;2022-07-25T01:36:14;18.61;63.31
70214;DHT22;60138;55.808;37.078;2022-07-25T01:38:40;18.58;63.11
70214;DHT22;60138;55.808;37.078;2022-07-25T01:41:06;18.58;63.16
70214;DHT22;60138;55.808;37.078;2022-07-25T01:43:32;18.59;63.43
70214;DHT22;60138;55.808;37.078;2022-07-25T01:45:58;18.58;63.28
70214;DHT22;60138;55.808;37.078;2022-07-25T01:48:24;18.56;63.21
70214;DHT22;60138;55.808;37.078;2022-07-25T01:50:49;18.55;63.19
70214;DHT22;60138;55.808;37.078;2022-07-25T01:53:15;18.53;63.25
70214;DHT22;60138;55.808;37.078;2022-07-25T01:55:44;18.52;63.47
70214;DHT22;60138;55.808;37.078;2022-07-25T01:58:10;18.52;63.23
70214;DHT22;60138;55.808;37.078;2022-07-25T02:00:36;18.52;63.31
70214;DHT22;60138;55.808;37.078;2022-07-25T02:03:02;18.53;63.23
70214;DHT22;60138;55.808;37.078;2022-07-25T02:05:28;18.54;63.15
70214;DHT22;60138;55.808;37.078;2022-07-25T02:07:54;18.54;63.32
70214;DHT22;60138;55.808;37.078;2022-07-25T02:10:19;18.53;63.37
70214;DHT22;60138;55.808;37.078;2022-07-25T02:12:45;18.56;63.40
70214;DHT22;60138;55.808;37.078;2022-07-25T02:15:11;18.57;63.59
70214;DHT22;60138;55.808;37.078;2022-07-25T02:17:37;18.58;63.42
70214;DHT22;60138;55.808;37.078;2022-07-25T02:20:03;18.63;63.57
70214;DHT22;60138;55.808;37.078;2022-07-25T02:22:29;18.68;63.56
70214;DHT22;60138;55.808;37.078;2022-07-25T02:24:55;18.77;63.46
70214;DHT22;60138;55.808;37.078;2022-07-25T02:27:20;18.85;63.50
70214;DHT22;60138;55.808;37.078;2022-07-25T02:29:46;18.92;63.16
70214;DHT22;60138;55.808;37.078;2022-07-25T02:32:12;18.97;63.15
70214;DHT22;60138;55.808;37.078;2022-07-25T02:34:37;19.00;63.16
70214;DHT22;60138;55.808;37.078;2022-07-25T02:37:03;19.02;63.36
70214;DHT22;60138;55.808;37.078;2022-07-25T02:39:29;19.05;63.44
70214;DHT22;60138;55.808;37.078;2022-07-25T02:41:55;19.02;63.31
70214;DHT22;60138;55.808;37.078;2022-07-25T02:44:20;19.03;63.63
70214;DHT22;60138;55.808;37.078;2022-07-25T02:46:46;19.06;63.89
70214;DHT22;60138;55.808;37.078;2022-07-25T02:49:12;19.09;63.74
70214;DHT22;60138;55.808;37.078;2022-07-25T02:51:37;19.08;64.21
70214;DHT22;60138;55.808;37.078;2022-07-25T02:54:03;19.06;64.27
70214;DHT22;60138;55.808;37.078;2022-07-25T02:56:29;19.05;64.12
70214;DHT22;60138;55.808;37.078;2022-07-25T02:58:55;19.06;64.35
70214;DHT22;60138;55.808;37.078;2022-07-25T03:01:20;19.06;64.23
70214;DHT22;60138;55.808;37.078;2022-07-25T03:03:46;19.08;64.39
70214;DHT22;60138;55.808;37.078;2022-07-25T03:06:12;19.11;64.30
70214;DHT22;60138;55.808;37.078;2022-07-25T03:08:38;19.13;64.38
70214;DHT22;60138;55.808;37.078;2022-07-25T03:11:04;19.15;64.04
70214;DHT22;60138;55.808;37.078;2022-07-25T03:13:30;19.18;64.21
70214;DHT22;60138;55.808;37.078;2022-07-25T03:15:56;19.21;64.06
70214;DHT22;60138;55.808;37.078;2022-07-25T03:18:21;19.25;64.30
70214;DHT22;60138;55.808;37.078;2022-07-25T03:20:47;19.28;64.57
70214;DHT22;60138;55.808;37.078;2022-07-25T03:23:13;19.33;64.34
70214;DHT22;60138;55.808;37.078;2022-07-25T03:25:39;19.36;64.41
70214;DHT22;60138;55.808;37.078;2022-07-25T03:28:05;19.39;64.30
70214;DHT22;60138;55.808;37.078;2022-07-25T03:30:31;19.41;64.47
70214;DHT22;60138;55.808;37.078;2022-07-25T03:32:56;19.44;64.16
70214;DHT22;60138;55.808;37.078;2022-07-25T03:35:22;19.47;64.22
70214;DHT22;60138;55.808;37.078;2022-07-25T03:37:48;19.51;63.66
70214;DHT22;60138;55.808;37.078;2022-07-25T03:40:14;19.55;64.45
70214;DHT22;60138;55.808;37.078;2022-07-25T03:42:40;19.58;64.21
70214;DHT22;60138;55.808;37.078;2022-07-25T03:45:06;19.63;64.66
70214;DHT22;60138;55.808;37.078;2022-07-25T03:47:32;19.67;64.07
70214;DHT22;60138;55.808;37.078;2022-07-25T03:49:58;19.71;64.03
70214;DHT22;60138;55.808;37.078;2022-07-25T03:52:23;19.77;64.39
70214;DHT22;60138;55.808;37.078;2022-07-25T03:54:49;19.82;64.08
70214;DHT22;60138;55.808;37.078;2022-07-25T03:57:15;19.85;64.00
70214;DHT22;60138;55.808;37.078;2022-07-25T03:59:41;19.89;63.44
70214;DHT22;60138;55.808;37.078;2022-07-25T04:02:07;19.91;63.76
70214;DHT22;60138;55.808;37.078;2022-07-25T04:04:33;19.94;63.93
70214;DHT22;60138;55.808;37.078;2022-07-25T04:06:59;19.96;64.92
70214;DHT22;60138;55.808;37.078;2022-07-25T04:09:24;19.99;64.99
70214;DHT22;60138;55.808;37.078;2022-07-25T04:11:50;20.04;64.52
70214;DHT22;60138;55.808;37.078;2022-07-25T04:14:16;20.10;63.79
70214;DHT22;60138;55.808;37.078;2022-07-25T04:16:42;20.16;66.72
70214;DHT22;60138;55.808;37.078;2022-07-25T04:19:08;20.19;65.73
70214;DHT22;60138;55.808;37.078;2022-07-25T04:21:35;20.22;64.77
70214;DHT22;60138;55.808;37.078;2022-07-25T04:24:02;20.29;64.35
70214;DHT22;60138;55.808;37.078;2022-07-25T04:26:27;20.33;66.33
70214;DHT22;60138;55.808;37.078;2022-07-25T04:28:53;20.40;64.56
70214;DHT22;60138;55.808;37.078;2022-07-25T04:31:19;20.46;65.03
70214;DHT22;60138;55.808;37.078;2022-07-25T04:33:45;20.49;64.49
70214;DHT22;60138;55.808;37.078;2022-07-25T04:36:11;20.53;64.05
70214;DHT22;60138;55.808;37.078;2022-07-25T04:38:46;20.56;65.62
70214;DHT22;60138;55.808;37.078;2022-07-25T04:41:18;20.60;66.17
70214;DHT22;60138;55.808;37.078;2022-07-25T04:43:51;20.65;63.90
70214;DHT22;60138;55.808;37.078;2022-07-25T04:46:19;20.70;64.58
70214;DHT22;60138;55.808;37.078;2022-07-25T04:48:48;20.73;64.50
70214;DHT22;60138;55.808;37.078;2022-07-25T04:51:16;20.75;63.73
70214;DHT22;60138;55.808;37.078;2022-07-25T04:53:41;20.79;65.30
70214;DHT22;60138;55.808;37.078;2022-07-25T04:56:07;20.81;66.11
70214;DHT22;60138;55.808;37.078;2022-07-25T04:58:33;20.85;64.19
70214;DHT22;60138;55.808;37.078;2022-07-25T05:00:59;20.88;63.94
70214;DHT22;60138;55.808;37.078;2022-07-25T05:03:25;20.93;63.45
70214;DHT22;60138;55.808;37.078;2022-07-25T05:05:51;21.00;64.22
70214;DHT22;60138;55.808;37.078;2022-07-25T05:08:17;21.04;64.01
70214;DHT22;60138;55.808;37.078;2022-07-25T05:10:42;21.10;64.22
70214;DHT22;60138;55.808;37.078;2022-07-25T05:13:08;21.15;64.41
70214;DHT22;60138;55.808;37.078;2022-07-25T05:15:34;21.23;64.87
70214;DHT22;60138;55.808;37.078;2022-07-25T05:18:00;21.36;64.84
70214;DHT22;60138;55.808;37.078;2022-07-25T05:20:26;21.48;63.76
70214;DHT22;60138;55.808;37.078;2022-07-25T05:22:52;21.58;63.29
70214;DHT22;60138;55.808;37.078;2022-07-25T05:25:18;21.68;63.58
70214;DHT22;60138;55.808;37.078;2022-07-25T05:27:44;21.77;66.42
70214;DHT22;60138;55.808;37.078;2022-07-25T05:30:11;21.87;63.35
70214;DHT22;60138;55.808;37.078;2022-07-25T05:32:38;21.93;62.74
70214;DHT22;60138;55.808;37.078;2022-07-25T05:35:06;22.02;62.65
70214;DHT22;60138;55.808;37.078;2022-07-25T05:37:32;22.12;65.23
70214;DHT22;60138;55.808;37.078;2022-07-25T05:39:59;22.20;63.64
70214;DHT22;60138;55.808;37.078;2022-07-25T05:42:25;22.23;62.61
70214;DHT22;60138;55.808;37.078;2022-07-25T05:44:50;22.25;63.04
70214;DHT22;60138;55.808;37.078;2022-07-25T05:47:16;22.27;61.86
70214;DHT22;60138;55.808;37.078;2022-07-25T05:49:42;22.26;62.60
70214;DHT22;60138;55.808;37.078;2022-07-25T05:52:08;22.28;61.28
70214;DHT22;60138;55.808;37.078;2022-07-25T05:54:34;22.33;61.88
70214;DHT22;60138;55.808;37.078;2022-07-25T05:57:00;22.35;62.45
70214;DHT22;60138;55.808;37.078;2022-07-25T05:59:26;22.34;62.55
70214;DHT22;60138;55.808;37.078;2022-07-25T06:01:52;22.33;62.62
70214;DHT22;60138;55.808;37.078;2022-07-25T06:04:18;22.34;61.17
70214;DHT22;60138;55.808;37.078;2022-07-25T06:06:44;22.36;61.34
70214;DHT22;60138;55.808;37.078;2022-07-25T06:09:10;22.37;60.75
70214;DHT22;60138;55.808;37.078;2022-07-25T06:11:42;22.42;61.34
70214;DHT22;60138;55.808;37.078;2022-07-25T06:14:10;22.51;60.56
70214;DHT22;60138;55.808;37.078;2022-07-25T06:16:36;22.57;60.66
70214;DHT22;60138;55.808;37.078;2022-07-25T06:19:02;22.62;60.83
70214;DHT22;60138;55.808;37.078;2022-07-25T06:21:28;22.69;60.69
70214;DHT22;60138;55.808;37.078;2022-07-25T06:24:00;22.78;60.73
70214;DHT22;60138;55.808;37.078;2022-07-25T06:26:29;22.83;60.36
70214;DHT22;60138;55.808;37.078;2022-07-25T06:28:55;22.92;59.82
70214;DHT22;60138;55.808;37.078;2022-07-25T06:31:20;23.02;59.51
70214;DHT22;60138;55.808;37.078;2022-07-25T06:33:46;23.16;58.96
70214;DHT22;60138;55.808;37.078;2022-07-25T06:36:12;23.30;58.99
70214;DHT22;60138;55.808;37.078;2022-07-25T06:38:38;23.39;59.07
70214;DHT22;60138;55.808;37.078;2022-07-25T06:41:04;23.55;59.10
70214;DHT22;60138;55.808;37.078;2022-07-25T06:43:30;23.75;58.15
70214;DHT22;60138;55.808;37.078;2022-07-25T06:45:55;24.05;57.67
70214;DHT22;60138;55.808;37.078;2022-07-25T06:48:21;24.39;57.26
70214;DHT22;60138;55.808;37.078;2022-07-25T06:50:47;24.79;56.70
70214;DHT22;60138;55.808;37.078;2022-07-25T06:53:13;25.13;56.47
70214;DHT22;60138;55.808;37.078;2022-07-25T06:55:39;25.35;55.61
70214;DHT22;60138;55.808;37.078;2022-07-25T06:58:04;25.46;55.14
70214;DHT22;60138;55.808;37.078;2022-07-25T07:00:30;25.52;55.08
70214;DHT22;60138;55.808;37.078;2022-07-25T07:02:58;25.62;54.91
70214;DHT22;60138;55.808;37.078;2022-07-25T07:05:26;25.72;54.47
70214;DHT22;60138;55.808;37.078;2022-07-25T07:07:52;25.94;54.49
70214;DHT22;60138;55.808;37.078;2022-07-25T07:10:19;26.20;54.17
70214;DHT22;60138;55.808;37.078;2022-07-25T07:12:45;26.39;53.52
70214;DHT22;60138;55.808;37.078;2022-07-25T07:15:11;26.50;53.20
70214;DHT22;60138;55.808;37.078;2022-07-25T07:17:38;26.75;52.82
70214;DHT22;60138;55.808;37.078;2022-07-25T07:20:05;26.91;52.78
70214;DHT22;60138;55.808;37.078;2022-07-25T07:22:31;27.10;52.34
70214;DHT22;60138;55.808;37.078;2022-07-25T07:25:07;27.20;51.82
70214;DHT22;60138;55.808;37.078;2022-07-25T07:27:33;27.29;51.54
70214;DHT22;60138;55.808;37.078;2022-07-25T07:29:59;27.29;50.97
70214;DHT22;60138;55.808;37.078;2022-07-25T07:32:24;27.17;50.99
70214;DHT22;60138;55.808;37.078;2022-07-25T07:34:50;26.99;51.09
70214;DHT22;60138;55.808;37.078;2022-07-25T07:37:16;26.82;51.19
70214;DHT22;60138;55.808;37.078;2022-07-25T07:39:42;26.61;50.93
70214;DHT22;60138;55.808;37.078;2022-07-25T07:42:07;26.43;51.27
70214;DHT22;60138;55.808;37.078;2022-07-25T07:44:33;26.33;51.35
70214;DHT22;60138;55.808;37.078;2022-07-25T07:46:59;26.35;51.38
70214;DHT22;60138;55.808;37.078;2022-07-25T07:49:25;26.37;51.56
70214;DHT22;60138;55.808;37.078;2022-07-25T07:51:50;26.34;51.03
70214;DHT22;60138;55.808;37.078;2022-07-25T07:54:16;26.37;51.00
70214;DHT22;60138;55.808;37.078;2022-07-25T07:56:42;26.38;50.71
70214;DHT22;60138;55.808;37.078;2022-07-25T07:59:08;26.38;50.65
70214;DHT22;60138;55.808;37.078;2022-07-25T08:01:34;26.35;50.82
70214;DHT22;60138;55.808;37.078;2022-07-25T08:03:59;26.50;50.91
70214;DHT22;60138;55.808;37.078;2022-07-25T08:06:25;26.67;50.30
70214;DHT22;60138;55.808;37.078;2022-07-25T08:08:51;26.84;50.09
70214;DHT22;60138;55.808;37.078;2022-07-25T08:11:17;27.06;50.22
70214;DHT22;60138;55.808;37.078;2022-07-25T08:13:42;27.35;48.47
70214;DHT22;60138;55.808;37.078;2022-07-25T08:16:08;27.54;48.80
70214;DHT22;60138;55.808;37.078;2022-07-25T08:18:34;27.70;48.89
70214;DHT22;60138;55.808;37.078;2022-07-25T08:21:01;27.78;48.47
70214;DHT22;60138;55.808;37.078;2022-07-25T08:23:27;27.90;48.66
70214;DHT22;60138;55.808;37.078;2022-07-25T08:25:54;27.99;48.31
70214;DHT22;60138;55.808;37.078;2022-07-25T08:28:19;27.97;48.34
70214;DHT22;60138;55.808;37.078;2022-07-25T08:30:45;27.76;48.41
70214;DHT22;60138;55.808;37.078;2022-07-25T08:33:13;27.59;47.96
70214;DHT22;60138;55.808;37.078;2022-07-25T08:35:39;27.43;47.59
70214;DHT22;60138;55.808;37.078;2022-07-25T08:38:05;27.17;48.35
70214;DHT22;60138;55.808;37.078;2022-07-25T08:40:33;27.14;48.06
70214;DHT22;60138;55.808;37.078;2022-07-25T08:42:59;27.30;47.75
70214;DHT22;60138;55.808;37.078;2022-07-25T08:45:26;27.43;47.36
70214;DHT22;60138;55.808;37.078;2022-07-25T08:47:54;27.35;45.40
70214;DHT22;60138;55.808;37.078;2022-07-25T08:50:25;27.19;47.54
70214;DHT22;60138;55.808;37.078;2022-07-25T08:52:51;27.10;46.01
70214;DHT22;60138;55.808;37.078;2022-07-25T08:55:19;27.02;47.18
70214;DHT22;60138;55.808;37.078;2022-07-25T08:57:47;27.09;47.60
70214;DHT22;60138;55.808;37.078;2022-07-25T09:00:21;27.29;47.99
70214;DHT22;60138;55.808;37.078;2022-07-25T09:03:06;27.45;47.91
70214;DHT22;60138;55.808;37.078;2022-07-25T09:05:34;27.54;47.27
70214;DHT22;60138;55.808;37.078;2022-07-25T09:08:08;27.58;46.87
70214;DHT22;60138;55.808;37.078;2022-07-25T09:10:35;27.50;46.94
70214;DHT22;60138;55.808;37.078;2022-07-25T09:13:07;27.35;47.45
70214;DHT22;60138;55.808;37.078;2022-07-25T09:15:38;27.20;47.34
70214;DHT22;60138;55.808;37.078;2022-07-25T09:18:08;27.02;47.40
70214;DHT22;60138;55.808;37.078;2022-07-25T09:20:51;26.95;47.30
70214;DHT22;60138;55.808;37.078;2022-07-25T09:23:31;26.89;44.92
70214;DHT22;60138;55.808;37.078;2022-07-25T09:26:08;26.83;47.09
70214;DHT22;60138;55.808;37.078;2022-07-25T09:28:48;26.92;46.99
70214;DHT22;60138;55.808;37.078;2022-07-25T09:31:16;27.06;47.16
70214;DHT22;60138;55.808;37.078;2022-07-25T09:33:53;27.25;47.51
70214;DHT22;60138;55.808;37.078;2022-07-25T09:36:20;27.44;46.97
70214;DHT22;60138;55.808;37.078;2022-07-25T09:38:52;27.51;46.51
70214;DHT22;60138;55.808;37.078;2022-07-25T09:41:18;27.51;45.68
70214;DHT22;60138;55.808;37.078;2022-07-25T09:43:44;27.55;46.57
70214;DHT22;60138;55.808;37.078;2022-07-25T09:46:11;27.65;46.64
70214;DHT22;60138;55.808;37.078;2022-07-25T09:48:38;27.72;46.29
70214;DHT22;60138;55.808;37.078;2022-07-25T09:51:06;27.70;45.23
70214;DHT22;60138;55.808;37.078;2022-07-25T09:53:32;27.37;45.26
70214;DHT22;60138;55.808;37.078;2022-07-25T09:56:00;27.24;46.19
70214;DHT22;60138;55.808;37.078;2022-07-25T09:58:27;27.16;46.49
70214;DHT22;60138;55.808;37.078;2022-07-25T10:01:02;27.15;46.44
70214;DHT22;60138;55.808;37.078;2022-07-25T10:06:18;27.06;44.90
70214;DHT22;60138;55.808;37.078;2022-07-25T10:08:47;26.99;46.05
70214;DHT22;60138;55.808;37.078;2022-07-25T10:11:26;26.94;45.12
70214;DHT22;60138;55.808;37.078;2022-07-25T10:13:53;26.92;46.15
70214;DHT22;60138;55.808;37.078;2022-07-25T10:16:21;26.94;46.27
70214;DHT22;60138;55.808;37.078;2022-07-25T10:18:56;26.96;45.54
70214;DHT22;60138;55.808;37.078;2022-07-25T10:21:24;26.96;46.13
70214;DHT22;60138;55.808;37.078;2022-07-25T10:26:22;27.22;46.69
70214;DHT22;60138;55.808;37.078;2022-07-25T10:28:50;27.43;46.41
70214;DHT22;60138;55.808;37.078;2022-07-25T10:31:35;27.57;44.13
70214;DHT22;60138;55.808;37.078;2022-07-25T10:34:03;27.55;45.43
70214;DHT22;60138;55.808;37.078;2022-07-25T10:36:49;27.38;44.42
70214;DHT22;60138;55.808;37.078;2022-07-25T10:39:17;27.26;45.16
70214;DHT22;60138;55.808;37.078;2022-07-25T10:41:52;27.39;45.52
70214;DHT22;60138;55.808;37.078;2022-07-25T10:44:19;27.49;45.15
70214;DHT22;60138;55.808;37.078;2022-07-25T10:46:45;27.65;45.49
70214;DHT22;60138;55.808;37.078;2022-07-25T10:49:22;27.94;44.76
70214;DHT22;60138;55.808;37.078;2022-07-25T10:51:59;28.17;44.19
70214;DHT22;60138;55.808;37.078;2022-07-25T10:54:30;28.19;44.17
70214;DHT22;60138;55.808;37.078;2022-07-25T10:56:58;28.26;44.62
70214;DHT22;60138;55.808;37.078;2022-07-25T10:59:38;28.23;44.12
70214;DHT22;60138;55.808;37.078;2022-07-25T11:02:07;28.11;44.17
70214;DHT22;60138;55.808;37.078;2022-07-25T11:04:35;27.93;43.75
70214;DHT22;60138;55.808;37.078;2022-07-25T11:07:14;27.94;44.32
70214;DHT22;60138;55.808;37.078;2022-07-25T11:09:42;27.90;43.71
70214;DHT22;60138;55.808;37.078;2022-07-25T11:12:09;27.75;41.61
70214;DHT22;60138;55.808;37.078;2022-07-25T11:14:42;27.55;43.99
70214;DHT22;60138;55.808;37.078;2022-07-25T11:17:17;27.72;45.49
70214;DHT22;60138;55.808;37.078;2022-07-25T11:19:55;28.05;43.79
70214;DHT22;60138;55.808;37.078;2022-07-25T11:22:21;28.30;44.61
70214;DHT22;60138;55.808;37.078;2022-07-25T11:24:48;28.56;45.14
70214;DHT22;60138;55.808;37.078;2022-07-25T11:27:31;28.87;44.21
70214;DHT22;60138;55.808;37.078;2022-07-25T11:32:40;29.27;42.74
70214;DHT22;60138;55.808;37.078;2022-07-25T11:35:06;29.34;42.46
70214;DHT22;60138;55.808;37.078;2022-07-25T11:37:34;29.27;43.24
70214;DHT22;60138;55.808;37.078;2022-07-25T11:40:02;29.37;43.70
70214;DHT22;60138;55.808;37.078;2022-07-25T11:42:38;29.16;39.73
70214;DHT22;60138;55.808;37.078;2022-07-25T11:45:18;28.87;40.59
70214;DHT22;60138;55.808;37.078;2022-07-25T11:47:46;28.73;41.07
70214;DHT22;60138;55.808;37.078;2022-07-25T11:50:12;29.31;39.96
70214;DHT22;60138;55.808;37.078;2022-07-25T11:52:38;30.36;35.63
70214;DHT22;60138;55.808;37.078;2022-07-25T11:55:13;31.84;38.40
70214;DHT22;60138;55.808;37.078;2022-07-25T11:57:42;32.94;33.35
70214;DHT22;60138;55.808;37.078;2022-07-25T12:00:19;34.21;33.61
70214;DHT22;60138;55.808;37.078;2022-07-25T12:02:47;34.85;30.74
70214;DHT22;60138;55.808;37.078;2022-07-25T12:05:19;35.77;30.48
70214;DHT22;60138;55.808;37.078;2022-07-25T12:07:49;36.14;35.64
70214;DHT22;60138;55.808;37.078;2022-07-25T12:10:20;36.83;34.86
70214;DHT22;60138;55.808;37.078;2022-07-25T12:12:56;37.79;29.00
70214;DHT22;60138;55.808;37.078;2022-07-25T12:15:25;37.88;28.03
70214;DHT22;60138;55.808;37.078;2022-07-25T12:17:52;38.63;31.49
70214;DHT22;60138;55.808;37.078;2022-07-25T12:20:21;39.35;23.23
70214;DHT22;60138;55.808;37.078;2022-07-25T12:22:48;39.65;29.13
70214;DHT22;60138;55.808;37.078;2022-07-25T12:25:15;40.33;20.66
70214;DHT22;60138;55.808;37.078;2022-07-25T12:27:42;40.54;27.45
70214;DHT22;60138;55.808;37.078;2022-07-25T12:30:08;40.10;24.23
70214;DHT22;60138;55.808;37.078;2022-07-25T12:32:35;39.53;20.94
70214;DHT22;60138;55.808;37.078;2022-07-25T12:35:03;39.28;22.95
70214;DHT22;60138;55.808;37.078;2022-07-25T12:37:30;39.08;24.25
70214;DHT22;60138;55.808;37.078;2022-07-25T12:39:56;38.98;25.61
70214;DHT22;60138;55.808;37.078;2022-07-25T12:42:22;39.29;26.07
70214;DHT22;60138;55.808;37.078;2022-07-25T12:44:48;39.43;21.99
70214;DHT22;60138;55.808;37.078;2022-07-25T12:47:14;39.27;25.43
70214;DHT22;60138;55.808;37.078;2022-07-25T12:49:40;37.48;25.37
70214;DHT22;60138;55.808;37.078;2022-07-25T12:52:05;35.48;27.11
70214;DHT22;60138;55.808;37.078;2022-07-25T12:54:31;35.20;28.21
70214;DHT22;60138;55.808;37.078;2022-07-25T12:56:57;35.97;28.68
70214;DHT22;60138;55.808;37.078;2022-07-25T12:59:23;36.99;25.51
70214;DHT22;60138;55.808;37.078;2022-07-25T13:01:48;38.25;29.38
70214;DHT22;60138;55.808;37.078;2022-07-25T13:04:14;39.05;22.45
70214;DHT22;60138;55.808;37.078;2022-07-25T13:06:40;39.77;28.36
70214;DHT22;60138;55.808;37.078;2022-07-25T13:09:06;40.48;25.59
70214;DHT22;60138;55.808;37.078;2022-07-25T13:11:35;41.35;28.23
70214;DHT22;60138;55.808;37.078;2022-07-25T13:14:01;42.25;26.20
70214;DHT22;60138;55.808;37.078;2022-07-25T13:16:27;43.03;26.46
70214;DHT22;60138;55.808;37.078;2022-07-25T13:18:53;43.69;24.63
70214;DHT22;60138;55.808;37.078;2022-07-25T13:21:19;43.87;22.34
70214;DHT22;60138;55.808;37.078;2022-07-25T13:23:45;44.01;23.21
70214;DHT22;60138;55.808;37.078;2022-07-25T13:26:11;44.16;23.09
70214;DHT22;60138;55.808;37.078;2022-07-25T13:28:38;43.27;24.34
70214;DHT22;60138;55.808;37.078;2022-07-25T13:31:05;43.05;24.76
70214;DHT22;60138;55.808;37.078;2022-07-25T13:33:31;43.58;24.79
70214;DHT22;60138;55.808;37.078;2022-07-25T13:35:58;42.76;24.62
70214;DHT22;60138;55.808;37.078;2022-07-25T13:38:25;41.35;25.60
70214;DHT22;60138;55.808;37.078;2022-07-25T13:40:50;41.70;19.85
70214;DHT22;60138;55.808;37.078;2022-07-25T13:43:16;41.94;22.24
70214;DHT22;60138;55.808;37.078;2022-07-25T13:45:43;42.04;22.92
70214;DHT22;60138;55.808;37.078;2022-07-25T13:48:09;41.83;22.53
70214;DHT22;60138;55.808;37.078;2022-07-25T13:50:38;42.10;24.65
70214;DHT22;60138;55.808;37.078;2022-07-25T13:53:08;42.87;24.37
70214;DHT22;60138;55.808;37.078;2022-07-25T13:55:47;42.67;18.06
70214;DHT22;60138;55.808;37.078;2022-07-25T13:58:14;40.70;20.23
70214;DHT22;60138;55.808;37.078;2022-07-25T14:00:42;38.20;20.99
70214;DHT22;60138;55.808;37.078;2022-07-25T14:03:08;36.62;25.07
70214;DHT22;60138;55.808;37.078;2022-07-25T14:05:36;36.03;25.83
70214;DHT22;60138;55.808;37.078;2022-07-25T14:08:03;37.11;26.49
70214;DHT22;60138;55.808;37.078;2022-07-25T14:10:29;38.11;25.55
70214;DHT22;60138;55.808;37.078;2022-07-25T14:12:55;39.17;24.27
70214;DHT22;60138;55.808;37.078;2022-07-25T14:15:21;39.71;25.52
70214;DHT22;60138;55.808;37.078;2022-07-25T14:17:47;40.46;25.43
70214;DHT22;60138;55.808;37.078;2022-07-25T14:20:12;40.65;18.57
70214;DHT22;60138;55.808;37.078;2022-07-25T14:22:39;40.51;20.10
70214;DHT22;60138;55.808;37.078;2022-07-25T14:25:05;39.99;19.58
70214;DHT22;60138;55.808;37.078;2022-07-25T14:27:32;40.07;23.95
70214;DHT22;60138;55.808;37.078;2022-07-25T14:29:58;39.51;24.84
70214;DHT22;60138;55.808;37.078;2022-07-25T14:32:24;38.28;23.13
70214;DHT22;60138;55.808;37.078;2022-07-25T14:34:50;38.58;24.56
70214;DHT22;60138;55.808;37.078;2022-07-25T14:37:15;39.45;24.25
70214;DHT22;60138;55.808;37.078;2022-07-25T14:39:41;38.99;24.30
70214;DHT22;60138;55.808;37.078;2022-07-25T14:42:07;37.77;23.60
70214;DHT22;60138;55.808;37.078;2022-07-25T14:44:33;36.32;24.82
70214;DHT22;60138;55.808;37.078;2022-07-25T14:46:59;35.64;27.28
70214;DHT22;60138;55.808;37.078;2022-07-25T14:49:24;35.37;27.91
70214;DHT22;60138;55.808;37.078;2022-07-25T14:51:50;35.50;28.05
70214;DHT22;60138;55.808;37.078;2022-07-25T14:54:16;35.53;27.97
70214;DHT22;60138;55.808;37.078;2022-07-25T14:56:43;35.49;28.42
70214;DHT22;60138;55.808;37.078;2022-07-25T14:59:09;35.40;28.51
70214;DHT22;60138;55.808;37.078;2022-07-25T15:01:36;35.70;28.59
70214;DHT22;60138;55.808;37.078;2022-07-25T15:04:03;36.23;27.62
70214;DHT22;60138;55.808;37.078;2022-07-25T15:06:30;36.23;27.23
70214;DHT22;60138;55.808;37.078;2022-07-25T15:08:56;36.11;27.54
70214;DHT22;60138;55.808;37.078;2022-07-25T15:11:22;36.09;28.13
70214;DHT22;60138;55.808;37.078;2022-07-25T15:13:48;36.18;26.97
70214;DHT22;60138;55.808;37.078;2022-07-25T15:16:15;35.51;28.20
70214;DHT22;60138;55.808;37.078;2022-07-25T15:18:42;34.78;29.42
70214;DHT22;60138;55.808;37.078;2022-07-25T15:21:08;34.04;29.74
70214;DHT22;60138;55.808;37.078;2022-07-25T15:23:34;33.00;32.76